Patriot, Indiana
Current Conditions -  °F | °C
As of 12:52 AM on Thursday 23 Oct 2014 (Local Time) from KCVG Reporting Station
Overcast Overcast  
Wind Chill: 47°   Ceiling: 2100
Heat Index: 49°   Visibility: 10mi
Dew Point: 38°   Wind: 6mph
Humidity: 66%   Direction: 60°ENE
Pressure: 30.26"   Gusts: NA
Location:  38.84°N, 84.83°W
Report Text: KCVG 230452Z 06005KT 10SM BKN021 OVC026 09/03 A3026 RMK AO2 SLP245 BINOVC OHD T00940033 401330061
Loading
Personal Weather Stations






























Interactive Weather Map
Tropical Storm Tracking
New forecast layout! Learn more

10-Day Weather Forecast

Advertisements
Track Severe Weather on mobile